Bernardo Sayao, Brazil
Current Conditions -  °F | °C
As of 4:00 PM on Friday 24 Oct 2014 (Local Time) from SBCJ Reporting Station
Scattered Clouds Scattered Clouds  
Wind Chill: 79°   Ceiling: Unl
Heat Index: 81°   Visibility: 6mi
Dew Point: 70°   Wind: 0mph
Humidity: 74%   Direction: NA
Pressure: 29.88"   Gusts: NA
Location:  7.87°S, 48.89°W
Report Text: SBCJ 241900Z 00000KT 9999 SCT030 26/21 Q1012
Loading
Personal Weather Stations






























Interactive Weather Map
Tropical Storm Tracking
New forecast layout! Learn more

10-Day Weather Forecast

Advertisements
Track Severe Weather on mobile